Anabel, Missouri
Current Conditions -  °F | °C
As of 5:55 AM on Friday 28 Nov 2014 (Local Time) from KIRK Reporting Station
Clear Clear  
Wind Chill: -11°   Ceiling: Unl
Heat Index: -4°   Visibility: 10mi
Dew Point: -6°   Wind: 14mph
Humidity: 91%   Direction: 150°SSE
Pressure: 30.1"   Gusts: NA
Location:  39.75°N, 92.34°W
Report Text: KIRK 281155Z AUTO 15012KT 10SM CLR M04/M06 A3010 RMK AO2 SLP209 T10441056 11044 21072 58044
Loading
Personal Weather Stations






























Interactive Weather Map New forecast layout! Learn more

10-Day Weather Forecast

Advertisements
Track Severe Weather on mobile